Biel Caballero

Recruteur en chef - Málaga
20 Janv 2028
Jeudi
Processus

Personnalité

Adaptabilité (3) Ambition (9) Controverse (7) Loyauté (9) Pression (3) Professionnalisme (17) Sportivité (10) Tempérament (5)

Profil

Style d'entraînement Démocratique
Diplôme Continental A
Détermination 5
Gestion des joueurs 11
Motivation 7
Discipline 8
Satisfaction professionnelle
100%
Fatigue
0%
Rôle Recruteur en chef
Salaire 87.8K p/s
Contrat 14.03.2028

Performance

Comportement Bon
Efficacité de l'entraînement
31%
Développement des joueurs
45%
Prévention des blessures
35%
Mise en place tactique
40%

Événements récents

A participé à une réunion de recrutement maintenant
A participé à une réunion de recrutement maintenant
A recommandé une cible de transfert maintenant
A recommandé une cible de transfert maintenant
A recommandé une cible de transfert maintenant
A présenté un dossier au conseil maintenant
Négociation de contrat entamée maintenant
En formation continue maintenant

Suivi en cours

259
Joueur Club Statut Capacité Confiance Observé Dernière observation Dernier vote
Konstantin Tyukavin Liverpool Rapport prêt 132 / 133 66% 1 17.01.2028 -
Sergi Maestre Cultural Leonesa Perdu 111 / 101 72% 1 17.01.2028 -
Jaouad El Yamiq Zaragoza Rapport prêt 117 / 119 72% 1 10.01.2028 -
José Paradela Tigres Actif 137 / 137 66% 1 01.01.2028 Approuver
Gilberto Mora Atlético Madrid Actif 145 / 147 40% 2 30.12.2027 -
Bop Guèye Haugesund Actif 106 / 107 40% 2 30.12.2027 -
Joel Medina Independiente Actif 108 / 122 40% 1 30.12.2027 -
David Valencia Alianza Petrolera Actif 122 / 140 40% 4 27.12.2027 -
Facundo Martínez Montevideo City Torque Actif 84 / 94 40% 1 27.12.2027 -
Mikkel Hope Haugesund Actif 103 / 110 40% 1 27.12.2027 -
Ryan Kavuma-McQueen Accrington Stanley Actif 112 / 129 40% 3 26.12.2027 -
Dylan Cabral Arsenal Actif 96 / 114 40% 2 26.12.2027 -
Kutlwano Letlhaku Ajax Cape Town Actif 117 / 131 40% 1 26.12.2027 -
Sheldon Dinesh Tranmere Rovers Actif 98 / 115 40% 2 25.12.2027 -
Kevin Angulo America de Cali Actif 106 / 107 40% 1 25.12.2027 -
Ben Broggio Grimsby Town Actif 106 / 108 40% 1 25.12.2027 -
Santiago López Independiente Actif 125 / 131 40% 2 23.12.2027 -
Maren Kefas Plateau United Actif 96 / 106 40% 4 23.12.2027 -
Dilan Godoy Vélez Actif 116 / 120 40% 1 23.12.2027 -
Tiziano Cabrera Central Norte Actif 83 / 90 40% 2 22.12.2027 -
Estêvão Millwall Actif 147 / 147 40% 4 22.12.2027 -
Shea Lacey Wolverhampton Actif 125 / 138 40% 1 21.12.2027 -
Archie Gray Derby County Actif 156 / 153 40% 1 21.12.2027 -
Tiago Gordillo San Miguel Actif 83 / 94 40% 3 20.12.2027 -
Lucas Camejo River Plate Actif 90 / 82 40% 1 20.12.2027 -
Oscar Otero Atletico Venezuela Actif 101 / 108 40% 4 19.12.2027 -
Tomás Aranda Boca Juniors Actif 107 / 114 40% 5 19.12.2027 -
Juan Camilo Córdoba Deportivo Pereira Actif 81 / 95 40% 4 19.12.2027 -
Mateo Silvetti Los Angeles Football Club Actif 119 / 134 40% 5 18.12.2027 -
Ryan McAidoo Gillingham Actif 123 / 129 40% 2 18.12.2027 -
Joaquín Muñoz O'Higgins Actif 93 / 100 40% 3 18.12.2027 -
Giovanni Cantizano Rosario Central Actif 117 / 120 40% 2 15.12.2027 -
Dmitry Pestryakov Dinamo Moscow Actif 108 / 132 40% 1 15.12.2027 -
Tiziano Noriega Tristán Suárez Actif 91 / 90 40% 1 14.12.2027 -
Hervin Goyes Deportivo Pasto Actif 109 / 107 40% 6 13.12.2027 -
Joel Ezra Enyimba Actif 85 / 99 40% 2 10.12.2027 -
Jayden Danns Wigan Athletic Actif 139 / 132 40% 1 10.12.2027 -
Luca Williams-Barnett Tranmere Rovers Actif 120 / 135 40% 1 10.12.2027 -
Siyabonga Mabena Chippa United Actif 122 / 123 40% 1 09.12.2027 -
Diego Vargas San Marcos de Arica Actif 88 / 98 40% 1 08.12.2027 -
Igor Tyjon Doncaster Rovers Actif 111 / 117 40% 1 08.12.2027 -
Celías Ingenthron Vélez Actif 113 / 127 40% 1 05.12.2027 -
Mateo Peralta Danubio Actif 109 / 123 40% 3 04.12.2027 -
Alfie James Ventforet Kofu Actif 78 / 82 40% 2 01.12.2027 -
Fredrik Ardraa Stromsgodset Actif 113 / 99 40% 1 01.12.2027 -
Musa Malik Ikorodu City Actif 89 / 100 40% 3 29.11.2027 -
Sebastián Ramírez Jaguares Actif 111 / 117 40% 2 27.11.2027 -
Matías Lozano Deportivo Pasto Actif 104 / 110 40% 2 24.11.2027 -
Emiliano Zambrano Gimnasia y Esgrima Actif 91 / 101 40% 3 23.11.2027 -
Diogo Guzmán Montevideo City Torque Actif 111 / 120 40% 5 23.11.2027 -
Cristian Florez Cortulua Actif 97 / 112 40% 2 21.11.2027 -
Samuel Posada Leones Actif 88 / 99 40% 1 21.11.2027 -
Hassan Beja AFC Leopards Actif 80 / 85 40% 1 20.11.2027 -
Lisandro Piñero Vélez Actif 126 / 132 40% 1 20.11.2027 -
Franco Minerva Platense Actif 110 / 118 40% 1 18.11.2027 -
Chimobi Igwilo Rangers International Actif 96 / 92 40% 1 14.11.2027 -
José Campos Valledupar Actif 81 / 93 40% 3 11.11.2027 -
Bryan Caicedo Leones Actif 104 / 113 40% 2 11.11.2027 -
Mads Bomholt Stabaek Actif 106 / 103 40% 1 10.11.2027 -
Gustavo Lozano Metropolitanos Actif 89 / 108 40% 1 10.11.2027 -
Mauro Carrizo Atlético Tucumán Actif 97 / 116 40% 1 04.11.2027 -
Rodrigo Villalba River Plate Actif 106 / 103 40% 1 04.11.2027 -
Luis Otávio Colorado Rapids Actif 102 / 117 40% 1 02.11.2027 -
Peter Amidu Acquah Asante Kotoko Actif 93 / 100 40% 1 25.08.2027 -
Darryl Bakola Padova Actif 117 / 116 40% 1 16.08.2027 -
Pedro de la Vega FC Dallas Actif 133 / 134 66% 1 01.06.2027 Approuver
Lucas Høgsberg RC Strasbourg Actif 143 / 139 40% 2 31.05.2027 -
Jon Garro Real Sociedad Actif 86 / 105 67% 2 31.05.2027 Observer
Noah Sadiki Sunderland Actif 149 / 146 40% 3 30.05.2027 -
Max Bird Birmingham Actif 138 / 132 40% 5 30.05.2027 -
Josh King Chelsea Actif 142 / 146 40% 3 29.05.2027 -
Jan Bürger Gillingham Actif 106 / 126 40% 3 27.05.2027 -
Vasco Santos Oliveirense Actif 90 / 98 40% 1 27.05.2027 -
Jofre Torrents Ajax Actif 121 / 124 40% 3 26.05.2027 -
Sascha Britschgi Padova Actif 118 / 118 40% 2 25.05.2027 -
Nathan Collins Brentford Actif 150 / 139 40% 4 23.05.2027 -
Javi Rodríguez Celta Actif 156 / 146 40% 3 23.05.2027 -
Welington Southampton Actif 132 / 127 40% 4 22.05.2027 -
Adam Wharton Crystal Palace Actif 152 / 161 40% 5 22.05.2027 -
Kazunari Kita Real Sociedad Actif 99 / 98 67% 2 22.05.2027 Observer
Pol Lozano Espanyol Actif 132 / 148 40% 11 21.05.2027 -
Lorenzo Amatucci Deportivo La Coruña Actif 125 / 131 40% 1 21.05.2027 -
Bojan Kovačević Cádiz Actif 124 / 132 40% 5 18.05.2027 -
Adrià Altimira Deportivo La Coruña Actif 136 / 140 40% 5 18.05.2027 -
Bernardo Lima Porto Actif 93 / 101 40% 1 18.05.2027 -
Finley McAllister Grimsby Town Actif 93 / 98 40% 1 18.05.2027 -
Kevin Vazquez Cruz Azul Actif 144 / 154 40% 7 16.05.2027 -
Leandro Martins Benfica Actif 95 / 103 40% 2 16.05.2027 -
Matías Gómez Granada Actif 121 / 131 40% 1 16.05.2027 -
Pablo Ramón Racing Santander Actif 134 / 137 40% 3 14.05.2027 -
Urko González Espanyol Actif 136 / 135 40% 8 14.05.2027 -
Jesús Vázquez Valencia Actif 142 / 143 40% 3 14.05.2027 -
Alessandro Buongiorno Sassuolo Actif 159 / 155 40% 5 13.05.2027 -
Adrien Truffert Bournemouth Actif 146 / 142 40% 8 13.05.2027 -
Flavien-Enzo Boyomo Osasuna Actif 146 / 152 40% 5 11.05.2027 -
Omar El Hilali Espanyol Actif 154 / 147 40% 5 11.05.2027 -
Álex Lizancos Burgos Actif 119 / 127 40% 1 11.05.2027 -
Tariq Lamptey Queens Park Rangers Actif 138 / 140 40% 1 07.05.2027 -
Víctor Chust Elche Actif 133 / 125 40% 1 07.05.2027 -
Ethan Galbraith Swansea City Actif 127 / 139 40% 2 06.05.2027 -
Yehor Yarmoliuk Brentford Actif 144 / 147 40% 2 04.05.2027 -
Marvin Park Las Palmas Actif 123 / 123 40% 2 04.05.2027 -
Murillo Nottingham Forest Actif 155 / 151 40% 1 03.05.2027 -
Sidny Lopes Cabral Trabzonspor Actif 147 / 121 40% 2 29.04.2027 -
Hugo Guillamón Gijón Actif 122 / 120 40% 1 29.04.2027 -
Yusi Alavés Actif 122 / 141 40% 3 28.04.2027 -
Óscar Mingueza Crystal Palace Actif 146 / 155 40% 1 28.04.2027 -
Jacques Ekomié Wrexham Actif 123 / 129 40% 2 27.04.2027 -
Alejandro Francés Girona Actif 126 / 124 40% 3 27.04.2027 -
Juanlu Bournemouth Actif 145 / 145 40% 3 25.04.2027 -
Tiago Freitas Benfica Actif 108 / 114 40% 2 25.04.2027 -
Christ Inao Oulaï Fiorentina Actif 139 / 131 40% 2 24.04.2027 -
Riley Owen Trento Actif 108 / 108 40% 3 23.04.2027 -
Davide Bartesaghi AC Milan Actif 125 / 134 40% 2 20.04.2027 -
Cheveyo Tsawa Club Brugge Actif 115 / 129 40% 2 20.04.2027 -
Ousmane Diomande Nottingham Forest Actif 147 / 149 40% 3 19.04.2027 -
Víctor Guzmán Monterrey Actif 144 / 119 40% 5 17.04.2027 -
Jesús Orozco Chiquete Cruz Azul Actif 132 / 119 40% 3 16.04.2027 -
Fidel Ambríz Monterrey Actif 135 / 125 40% 5 12.04.2027 -
José Pachuca Puebla Actif 120 / 100 40% 2 09.04.2027 -
Kevin Lomónaco Elche Actif 127 / 145 40% 1 06.04.2027 -
Anthony Rouault Stade Rennais Actif 140 / 129 40% 1 05.04.2027 -
Florentino Luís Ipswich Town Actif 149 / 138 40% 4 04.04.2027 -
Khalis Merah Toulouse FC Actif 122 / 124 40% 3 03.04.2027 -
Aaron Hickey Brentford Actif 148 / 138 40% 2 03.04.2027 -
Emirhan Başyiğit Sivasspor Actif 97 / 121 40% 1 02.04.2027 -
Antonio Blanco Alavés Actif 152 / 144 40% 2 31.03.2027 -
James Dornelly Peterborough United Actif 100 / 112 40% 3 30.03.2027 -
Leif Davis Ipswich Town Actif 134 / 138 40% 1 30.03.2027 -
Cathal Heffernan Harrogate Town Actif 78 / 91 40% 2 26.03.2027 -
Kristoffer Lund Birmingham Actif 129 / 120 40% 1 26.03.2027 -
Hamish Douglas Grimsby Town Actif 88 / 109 40% 1 26.03.2027 -
Ilay Camara Anderlecht Actif 133 / 123 40% 3 24.03.2027 -
Keagan Tau Ajax Cape Town Actif 96 / 91 40% 1 24.03.2027 -
Orkun Kökçü Besiktas Actif 137 / 135 40% 1 24.03.2027 -
Christian Krasnodar Actif 147 / 148 40% 2 21.03.2027 -
Oliver Skipp Leicester City Actif 135 / 130 40% 1 21.03.2027 -
Richard Ledezma Guadalajara Actif 134 / 136 40% 11 18.03.2027 -
Raoul Bellanova Atalanta Actif 157 / 140 40% 1 17.03.2027 -
Ryan Sessegnon Fulham Actif 144 / 151 40% 2 16.03.2027 -
Daijiro Chirino Almería Actif 136 / 138 40% 2 16.03.2027 -
Christos Mouzakitis Hull City Actif 137 / 133 40% 1 16.03.2027 -
Ernie Weaver AFC Wimbledon Actif 109 / 115 40% 1 16.03.2027 -
Toni Tamarit Alverca Actif 110 / 122 40% 1 10.03.2027 -
Michael Kayode Brentford Actif 152 / 150 40% 1 07.03.2027 -
Émile Fontaine Chamois Niortais Actif 108 / 131 40% 1 05.03.2027 -
Shea Charles Southampton Actif 133 / 143 40% 1 05.03.2027 -
Matvey Kislyak CSKA Moscow Actif 132 / 148 40% 1 01.03.2027 -
Joel McGregor Swindon Town Actif 94 / 98 40% 1 01.03.2027 -
Raymond Agyemang Aduana Stars Actif 91 / 98 40% 1 01.03.2027 -
Lewis Ferguson Bologna Actif 148 / 142 40% 2 26.02.2027 -
Marlon Gomes Shakhtar Actif 147 / 140 40% 2 24.02.2027 -
Toby Collyer West Bromwich Albion Actif 135 / 127 40% 1 23.02.2027 -
Harry Clarke Preston Actif 132 / 124 40% 1 23.02.2027 -
Anel Ahmedhodžić Burnley Actif 136 / 134 40% 2 21.02.2027 -
Ilaix Moriba Celta Actif 156 / 154 40% 2 19.02.2027 -
Quinten Timber Crystal Palace Actif 144 / 154 40% 1 14.02.2027 -
Bruno Méndez Toluca Actif 135 / 114 40% 2 05.02.2027 -
Dara O'Shea Ipswich Town Actif 139 / 132 40% 1 03.02.2027 -
Luke McNally Bristol City Actif 127 / 134 40% 1 01.02.2027 -
Tom Fellows Southampton Actif 133 / 138 40% 3 11.01.2027 -
Giacomo Raspadori Atalanta Actif 152 / 141 40% 3 30.12.2026 -
Ez Abde Girona Actif 143 / 146 40% 2 30.12.2026 -
Rémi Lemoine Chamois Niortais Actif 164 / 151 40% 5 28.12.2026 -
Duk Atlas Actif 119 / 126 40% 3 28.12.2026 -
Ali Ahmed Norwich City Actif 123 / 132 40% 1 27.12.2026 -
Diego Lainez Tigres Actif 123 / 120 40% 6 26.12.2026 -
Hugo Álvarez Celta Actif 135 / 151 40% 3 26.12.2026 -
Isaiah Jones Luton Town Actif 129 / 128 40% 1 25.12.2026 -
Pablo Torre Mallorca Actif 138 / 133 40% 1 25.12.2026 -
Gaspar Gijón Actif 138 / 128 40% 2 24.12.2026 Plus d'infos
Williams Manyama SuperSport United Actif 108 / 113 40% 1 23.12.2026 -
Brian Gutiérrez Guadalajara Actif 136 / 142 40% 4 22.12.2026 -
Dango Ouattara Brentford Actif 146 / 144 40% 1 22.12.2026 -
Ozziel Herrera Tigres Actif 128 / 137 40% 4 21.12.2026 -
Rômulo Tigres Actif 127 / 132 40% 1 21.12.2026 -
Richard Gonzalez Chamois Niortais Actif 122 / 132 40% 1 21.12.2026 -
Aimar Osasuna Actif 140 / 156 40% 2 18.12.2026 -
Tyrhys Dolan Espanyol Actif 136 / 131 40% 1 18.12.2026 -
Brian Rodríguez Club America Actif 133 / 133 40% 4 17.12.2026 -
Pedro Vite Pumas UNAM Actif 125 / 125 40% 3 16.12.2026 -
Santiago Simón Toluca Actif 116 / 118 40% 2 16.12.2026 -
Eduardo Dos Santos Veracruz Actif 114 / 110 40% 1 15.12.2026 -
Ramiro Sordo Santos Laguna Actif 126 / 137 40% 4 11.12.2026 -
Ezequiel Bullaude Santos Laguna Actif 120 / 138 40% 5 11.12.2026 -
César Araújo Tigres Actif 131 / 125 40% 1 11.12.2026 -
Mateus Mané Manchester United Actif 136 / 130 40% 1 09.12.2026 -
Félix Lemaréchal Club Brugge Actif 129 / 144 40% 2 07.12.2026 -
Alexei Dominguez Pachuca Actif 110 / 110 40% 1 07.12.2026 -
Tyler Adams Bournemouth Actif 160 / 143 40% 1 04.12.2026 -
Joaquín Gho Argentinos Juniors Actif 119 / 127 40% 4 28.11.2026 -
Ramiro Ruiz Rodríguez Atlético Tucumán Actif 122 / 121 40% 1 27.11.2026 -
Callum Hudson-Odoi Nottingham Forest Actif 149 / 156 40% 1 27.11.2026 -
Iker Benito Queretaro Actif 124 / 118 40% 3 25.11.2026 -
Efraín Álvarez Guadalajara Actif 138 / 123 40% 1 25.11.2026 -
Javi Martínez Eibar Actif 132 / 131 40% 1 24.11.2026 -
Aarón Molinas Defensa y Justicia Actif 131 / 131 40% 3 23.11.2026 -
Tiago Palacios Estudiantes Actif 128 / 132 40% 4 22.11.2026 -
Matt O'Riley Brighton Actif 152 / 134 40% 3 22.11.2026 -
Matko Miljevic Racing Club Actif 124 / 121 40% 3 21.11.2026 -
Leandro Lozano Boca Juniors Actif 119 / 134 40% 2 20.11.2026 -
Rico Lewis Manchester City Actif 150 / 152 40% 2 19.11.2026 -
Matías Fernández Independiente Rivadavia Actif 123 / 114 40% 4 19.11.2026 -
Andrés Martín Racing Santander Actif 138 / 143 40% 1 19.11.2026 -
Sebastián Medina Tigre Actif 111 / 111 40% 1 16.11.2026 -
Carlos Vicente Birmingham Actif 144 / 150 40% 1 15.11.2026 -
Alejandro Balde Barcelona Actif 157 / 151 40% 1 12.11.2026 -
Thalys Almería Actif 118 / 122 40% 2 10.11.2026 -
Yastin Cuevas Colo-Colo Actif 97 / 98 40% 1 10.11.2026 -
Jonás Luna Santa Clara Actif 119 / 112 40% 2 08.11.2026 -
Alex Luna Instituto Actif 122 / 136 40% 2 04.11.2026 -
Alexander Díaz Deportivo Riestra Actif 123 / 113 40% 1 04.11.2026 -
Nicolás Castro Toluca Actif 136 / 120 40% 1 03.11.2026 -
Jaminton Campaz Rosario Central Actif 119 / 120 40% 1 03.11.2026 -
Gavi Barcelona Actif 149 / 160 40% 1 03.11.2026 -
Tomás Silva Platense Actif 122 / 116 40% 1 02.11.2026 -
Gonzalo Ríos Independiente Rivadavia Actif 113 / 112 40% 1 02.11.2026 -
Tomás O'Connor Gimnasia y Esgrima Actif 128 / 121 40% 2 01.11.2026 -
Alan Lescano Argentinos Juniors Actif 132 / 126 40% 6 31.10.2026 -
Felipe Peña Biafore Lanús Actif 122 / 129 40% 1 28.10.2026 -
Juan Turletti Gimnasia y Tiro Actif 93 / 93 40% 2 26.10.2026 -
Eric Meza Estudiantes Actif 125 / 118 40% 4 23.10.2026 -
Imanol Machuca Independiente Actif 131 / 114 40% 1 23.10.2026 -
Juan Pablo Domínguez Leon Actif 137 / 135 40% 2 21.10.2026 -
Yojan Garcés America de Cali Actif 112 / 120 40% 2 20.10.2026 -
Bryan González Guadalajara Actif 121 / 140 40% 1 17.10.2026 -
Jean Galindo Imotski Actif 73 / 80 40% 1 17.10.2026 -
Patrick Preciado Deportivo Pasto Actif 95 / 107 40% 2 15.10.2026 -
Juan Velázquez Belgrano Actif 127 / 118 40% 1 15.10.2026 -
Jones El-Abdellaoui Celta Actif 128 / 131 40% 1 15.10.2026 -
Ezekiel Kwame Alladoh Philadelphia Union Actif 111 / 105 40% 1 14.10.2026 -
Erick Sánchez OGC Nice Actif 138 / 136 40% 3 10.10.2026 -
Augusto Schott Talleres Actif 121 / 118 40% 2 08.10.2026 -
Santiago Montiel Independiente Actif 132 / 126 40% 1 08.10.2026 -
Dom Ballard Leyton Orient Actif 112 / 133 40% 1 08.10.2026 -
Nicolás Laméndola Atlético Tucumán Actif 125 / 113 40% 2 06.10.2026 -
Johan Martínez Deportivo Cali Actif 113 / 120 40% 3 05.10.2026 -
Manuel Ospina Cortulua Actif 125 / 131 40% 2 02.10.2026 -
Junior Hernández Deportes Tolima Actif 124 / 120 40% 1 01.10.2026 -
Adalberto Carrasquilla Pumas UNAM Actif 124 / 127 40% 4 30.09.2026 -
Franco Díaz Temperley Actif 123 / 122 40% 1 30.09.2026 -
Alexis Cuello San Lorenzo Actif 121 / 117 40% 2 28.09.2026 -
Omar Campos Cruz Azul Actif 116 / 112 40% 1 28.09.2026 -
Joaquim Tigres Actif 121 / 131 40% 1 27.09.2026 -
Kevin Álvarez Club America Actif 132 / 125 40% 1 27.09.2026 -
Nazareno Colombo Racing Club Actif 124 / 124 40% 1 25.09.2026 -
Emerson Batalla Atletico Bucaramanga Actif 117 / 132 40% 1 24.09.2026 -
Bryan Castrillón Independiente Medellin Actif 122 / 126 40% 1 24.09.2026 -
Lucas Souto Defensa y Justicia Actif 128 / 126 40% 1 17.09.2026 -
Sondre Langås Derby County Actif 135 / 120 40% 1 16.09.2026 -
Manuel Mónaco Sarmiento Actif 117 / 110 40% 1 15.09.2026 -
Juan Carlos Portillo River Plate Actif 131 / 123 40% 1 12.09.2026 -
Jack Hinshelwood Brighton Actif 140 / 144 40% 1 11.09.2026 -
Alejo Cruz Juventud Actif 121 / 111 40% 1 09.09.2026 -
Samuel Velásquez Atletico Nacional Actif 115 / 129 40% 1 08.09.2026 -
Ignacio Schor O'Higgins Actif 113 / 122 40% 1 07.09.2026 -
Raúl De Tomás Rayo Vallecano Actif 117 / 131 65% 1 31.08.2026 Approuver
Facundo Di Biasi Gimnasia La Plata Actif 113 / 127 40% 1 10.08.2026 -
Bautista González Independiente Actif 97 / 102 40% 1 01.08.2026 -